sensor_id;sensor_type;location;lat;lon;timestamp;P1;durP1;ratioP1;P2;durP2;ratioP2
3559;SDS011;1794;48.804;9.156;2022-08-01T00:01:29;3.57;;;2.73;;
3559;SDS011;1794;48.804;9.156;2022-08-01T00:03:56;2.83;;;2.37;;
3559;SDS011;1794;48.804;9.156;2022-08-01T00:06:23;3.77;;;2.37;;
3559;SDS011;1794;48.804;9.156;2022-08-01T00:08:51;2.93;;;2.03;;
3559;SDS011;1794;48.804;9.156;2022-08-01T00:11:18;4.17;;;2.83;;
3559;SDS011;1794;48.804;9.156;2022-08-01T00:13:44;2.37;;;2.10;;
3559;SDS011;1794;48.804;9.156;2022-08-01T00:16:11;3.13;;;2.80;;
3559;SDS011;1794;48.804;9.156;2022-08-01T00:18:38;3.63;;;3.00;;
3559;SDS011;1794;48.804;9.156;2022-08-01T00:21:05;3.73;;;2.67;;
3559;SDS011;1794;48.804;9.156;2022-08-01T00:23:31;3.50;;;2.60;;
3559;SDS011;1794;48.804;9.156;2022-08-01T00:26:00;2.57;;;2.37;;
3559;SDS011;1794;48.804;9.156;2022-08-01T00:28:27;3.90;;;3.10;;
3559;SDS011;1794;48.804;9.156;2022-08-01T00:30:53;3.90;;;2.77;;
3559;SDS011;1794;48.804;9.156;2022-08-01T00:33:20;3.10;;;2.60;;
3559;SDS011;1794;48.804;9.156;2022-08-01T00:35:47;2.73;;;2.43;;
3559;SDS011;1794;48.804;9.156;2022-08-01T00:38:14;2.67;;;2.47;;
3559;SDS011;1794;48.804;9.156;2022-08-01T00:40:40;4.10;;;2.97;;
3559;SDS011;1794;48.804;9.156;2022-08-01T00:43:08;3.10;;;2.70;;
3559;SDS011;1794;48.804;9.156;2022-08-01T00:45:35;4.23;;;3.20;;
3559;SDS011;1794;48.804;9.156;2022-08-01T00:48:02;4.83;;;2.97;;
3559;SDS011;1794;48.804;9.156;2022-08-01T00:50:29;6.97;;;2.97;;
3559;SDS011;1794;48.804;9.156;2022-08-01T00:52:56;3.83;;;2.70;;
3559;SDS011;1794;48.804;9.156;2022-08-01T00:55:24;3.10;;;2.80;;
3559;SDS011;1794;48.804;9.156;2022-08-01T00:57:52;3.30;;;2.60;;
3559;SDS011;1794;48.804;9.156;2022-08-01T01:00:20;3.80;;;2.83;;
3559;SDS011;1794;48.804;9.156;2022-08-01T01:02:47;4.47;;;2.73;;
3559;SDS011;1794;48.804;9.156;2022-08-01T01:05:14;3.40;;;2.73;;
3559;SDS011;1794;48.804;9.156;2022-08-01T01:07:45;4.93;;;3.20;;
3559;SDS011;1794;48.804;9.156;2022-08-01T01:10:17;3.73;;;2.60;;
3559;SDS011;1794;48.804;9.156;2022-08-01T01:12:50;4.10;;;3.20;;
3559;SDS011;1794;48.804;9.156;2022-08-01T01:15:26;4.27;;;3.23;;
3559;SDS011;1794;48.804;9.156;2022-08-01T01:18:02;4.30;;;3.47;;
3559;SDS011;1794;48.804;9.156;2022-08-01T01:20:33;3.20;;;2.90;;
3559;SDS011;1794;48.804;9.156;2022-08-01T01:23:12;3.43;;;2.50;;
3559;SDS011;1794;48.804;9.156;2022-08-01T01:25:57;3.07;;;2.77;;
3559;SDS011;1794;48.804;9.156;2022-08-01T01:28:40;4.37;;;2.80;;
3559;SDS011;1794;48.804;9.156;2022-08-01T01:31:24;3.53;;;3.03;;
3559;SDS011;1794;48.804;9.156;2022-08-01T01:33:53;3.30;;;3.00;;
3559;SDS011;1794;48.804;9.156;2022-08-01T01:36:22;3.67;;;2.60;;
3559;SDS011;1794;48.804;9.156;2022-08-01T01:38:51;4.87;;;3.50;;
3559;SDS011;1794;48.804;9.156;2022-08-01T01:41:20;4.40;;;3.00;;
3559;SDS011;1794;48.804;9.156;2022-08-01T01:43:48;3.97;;;3.20;;
3559;SDS011;1794;48.804;9.156;2022-08-01T01:46:19;4.00;;;3.30;;
3559;SDS011;1794;48.804;9.156;2022-08-01T01:48:51;3.30;;;2.93;;
3559;SDS011;1794;48.804;9.156;2022-08-01T01:51:20;4.03;;;3.57;;
3559;SDS011;1794;48.804;9.156;2022-08-01T01:53:48;2.80;;;2.53;;
3559;SDS011;1794;48.804;9.156;2022-08-01T01:56:17;3.47;;;3.17;;
3559;SDS011;1794;48.804;9.156;2022-08-01T01:58:46;4.60;;;3.30;;
3559;SDS011;1794;48.804;9.156;2022-08-01T02:01:18;3.77;;;2.80;;
3559;SDS011;1794;48.804;9.156;2022-08-01T02:03:47;7.47;;;3.93;;
3559;SDS011;1794;48.804;9.156;2022-08-01T02:06:15;3.80;;;2.83;;
3559;SDS011;1794;48.804;9.156;2022-08-01T02:08:43;4.00;;;2.90;;
3559;SDS011;1794;48.804;9.156;2022-08-01T02:11:11;5.03;;;3.80;;
3559;SDS011;1794;48.804;9.156;2022-08-01T02:13:44;3.33;;;3.03;;
3559;SDS011;1794;48.804;9.156;2022-08-01T02:16:14;3.10;;;2.60;;
3559;SDS011;1794;48.804;9.156;2022-08-01T02:18:44;4.00;;;3.40;;
3559;SDS011;1794;48.804;9.156;2022-08-01T02:21:12;3.87;;;3.30;;
3559;SDS011;1794;48.804;9.156;2022-08-01T02:23:42;3.30;;;3.00;;
3559;SDS011;1794;48.804;9.156;2022-08-01T02:26:10;4.13;;;3.40;;
3559;SDS011;1794;48.804;9.156;2022-08-01T02:28:43;3.93;;;3.17;;
3559;SDS011;1794;48.804;9.156;2022-08-01T02:31:14;3.73;;;2.40;;
3559;SDS011;1794;48.804;9.156;2022-08-01T02:33:46;3.77;;;2.70;;
3559;SDS011;1794;48.804;9.156;2022-08-01T02:36:17;6.57;;;3.27;;
3559;SDS011;1794;48.804;9.156;2022-08-01T02:38:46;4.10;;;3.23;;
3559;SDS011;1794;48.804;9.156;2022-08-01T02:41:16;4.13;;;3.00;;
3559;SDS011;1794;48.804;9.156;2022-08-01T02:43:47;3.77;;;3.00;;
3559;SDS011;1794;48.804;9.156;2022-08-01T02:46:17;4.43;;;3.40;;
3559;SDS011;1794;48.804;9.156;2022-08-01T02:48:50;5.20;;;3.40;;
3559;SDS011;1794;48.804;9.156;2022-08-01T02:51:19;4.63;;;3.90;;
3559;SDS011;1794;48.804;9.156;2022-08-01T02:53:49;6.00;;;3.37;;
3559;SDS011;1794;48.804;9.156;2022-08-01T02:56:18;4.47;;;3.63;;
3559;SDS011;1794;48.804;9.156;2022-08-01T02:58:47;3.47;;;3.13;;
3559;SDS011;1794;48.804;9.156;2022-08-01T03:01:17;5.40;;;3.30;;
3559;SDS011;1794;48.804;9.156;2022-08-01T03:03:44;3.30;;;3.00;;
3559;SDS011;1794;48.804;9.156;2022-08-01T03:06:13;5.27;;;3.30;;
3559;SDS011;1794;48.804;9.156;2022-08-01T03:08:41;4.57;;;3.10;;
3559;SDS011;1794;48.804;9.156;2022-08-01T03:11:09;8.23;;;3.30;;
3559;SDS011;1794;48.804;9.156;2022-08-01T03:13:38;4.40;;;3.03;;
3559;SDS011;1794;48.804;9.156;2022-08-01T03:16:08;4.17;;;3.00;;
3559;SDS011;1794;48.804;9.156;2022-08-01T03:18:37;3.00;;;2.70;;
3559;SDS011;1794;48.804;9.156;2022-08-01T03:21:07;3.83;;;2.93;;
3559;SDS011;1794;48.804;9.156;2022-08-01T03:23:36;4.53;;;3.40;;
3559;SDS011;1794;48.804;9.156;2022-08-01T03:26:04;5.20;;;2.90;;
3559;SDS011;1794;48.804;9.156;2022-08-01T03:28:32;3.60;;;2.80;;
3559;SDS011;1794;48.804;9.156;2022-08-01T03:30:59;3.50;;;2.87;;
3559;SDS011;1794;48.804;9.156;2022-08-01T03:33:27;6.10;;;3.37;;
3559;SDS011;1794;48.804;9.156;2022-08-01T03:35:54;5.00;;;3.00;;
3559;SDS011;1794;48.804;9.156;2022-08-01T03:38:23;4.70;;;3.20;;
3559;SDS011;1794;48.804;9.156;2022-08-01T03:40:55;3.83;;;2.60;;
3559;SDS011;1794;48.804;9.156;2022-08-01T03:43:26;3.63;;;3.20;;
3559;SDS011;1794;48.804;9.156;2022-08-01T03:46:01;3.30;;;2.63;;
3559;SDS011;1794;48.804;9.156;2022-08-01T03:48:34;4.07;;;3.40;;
3559;SDS011;1794;48.804;9.156;2022-08-01T03:51:05;3.30;;;2.90;;
3559;SDS011;1794;48.804;9.156;2022-08-01T03:53:32;3.33;;;2.80;;
3559;SDS011;1794;48.804;9.156;2022-08-01T03:56:02;3.03;;;2.47;;
3559;SDS011;1794;48.804;9.156;2022-08-01T03:58:33;4.83;;;2.90;;
3559;SDS011;1794;48.804;9.156;2022-08-01T04:01:00;4.73;;;3.17;;
3559;SDS011;1794;48.804;9.156;2022-08-01T04:03:27;4.37;;;3.20;;
3559;SDS011;1794;48.804;9.156;2022-08-01T04:05:54;3.63;;;2.83;;
3559;SDS011;1794;48.804;9.156;2022-08-01T04:08:21;3.77;;;2.90;;
3559;SDS011;1794;48.804;9.156;2022-08-01T04:10:48;4.50;;;4.03;;
3559;SDS011;1794;48.804;9.156;2022-08-01T04:13:16;3.27;;;2.83;;
3559;SDS011;1794;48.804;9.156;2022-08-01T04:15:43;5.57;;;3.23;;
3559;SDS011;1794;48.804;9.156;2022-08-01T04:18:09;4.30;;;3.90;;
3559;SDS011;1794;48.804;9.156;2022-08-01T04:20:36;5.10;;;3.60;;
3559;SDS011;1794;48.804;9.156;2022-08-01T04:23:03;3.53;;;3.23;;
3559;SDS011;1794;48.804;9.156;2022-08-01T04:25:32;5.70;;;3.43;;
3559;SDS011;1794;48.804;9.156;2022-08-01T04:28:01;4.20;;;3.00;;
3559;SDS011;1794;48.804;9.156;2022-08-01T04:30:32;4.10;;;3.47;;
3559;SDS011;1794;48.804;9.156;2022-08-01T04:33:02;4.83;;;3.43;;
3559;SDS011;1794;48.804;9.156;2022-08-01T04:35:31;5.60;;;3.20;;
3559;SDS011;1794;48.804;9.156;2022-08-01T04:37:59;7.70;;;3.43;;
3559;SDS011;1794;48.804;9.156;2022-08-01T04:40:28;5.07;;;3.23;;
3559;SDS011;1794;48.804;9.156;2022-08-01T04:42:55;4.47;;;3.50;;
3559;SDS011;1794;48.804;9.156;2022-08-01T04:45:22;3.53;;;2.83;;
3559;SDS011;1794;48.804;9.156;2022-08-01T04:47:51;4.90;;;3.43;;
3559;SDS011;1794;48.804;9.156;2022-08-01T04:50:18;3.63;;;2.60;;
3559;SDS011;1794;48.804;9.156;2022-08-01T04:52:47;4.53;;;3.13;;
3559;SDS011;1794;48.804;9.156;2022-08-01T04:55:14;4.00;;;3.00;;
3559;SDS011;1794;48.804;9.156;2022-08-01T04:57:42;4.57;;;3.27;;
3559;SDS011;1794;48.804;9.156;2022-08-01T05:00:11;3.53;;;3.00;;
3559;SDS011;1794;48.804;9.156;2022-08-01T05:02:38;4.13;;;3.13;;
3559;SDS011;1794;48.804;9.156;2022-08-01T05:05:07;4.10;;;2.90;;
3559;SDS011;1794;48.804;9.156;2022-08-01T05:07:35;4.30;;;3.13;;
3559;SDS011;1794;48.804;9.156;2022-08-01T05:10:02;5.57;;;3.40;;
3559;SDS011;1794;48.804;9.156;2022-08-01T05:12:29;5.17;;;3.97;;
3559;SDS011;1794;48.804;9.156;2022-08-01T05:14:57;3.30;;;2.97;;
3559;SDS011;1794;48.804;9.156;2022-08-01T05:17:24;3.57;;;2.83;;
3559;SDS011;1794;48.804;9.156;2022-08-01T05:19:51;3.30;;;2.80;;
3559;SDS011;1794;48.804;9.156;2022-08-01T05:22:19;4.60;;;2.60;;
3559;SDS011;1794;48.804;9.156;2022-08-01T05:24:45;3.93;;;2.70;;
3559;SDS011;1794;48.804;9.156;2022-08-01T05:27:12;6.40;;;2.90;;
3559;SDS011;1794;48.804;9.156;2022-08-01T05:29:39;2.93;;;2.63;;
3559;SDS011;1794;48.804;9.156;2022-08-01T05:32:07;4.50;;;3.00;;
3559;SDS011;1794;48.804;9.156;2022-08-01T05:34:34;3.43;;;2.30;;
3559;SDS011;1794;48.804;9.156;2022-08-01T05:37:01;3.60;;;2.43;;
3559;SDS011;1794;48.804;9.156;2022-08-01T05:39:29;6.67;;;2.70;;
3559;SDS011;1794;48.804;9.156;2022-08-01T05:41:56;3.77;;;2.90;;
3559;SDS011;1794;48.804;9.156;2022-08-01T05:44:22;2.50;;;2.10;;
3559;SDS011;1794;48.804;9.156;2022-08-01T05:46:50;2.97;;;2.13;;
3559;SDS011;1794;48.804;9.156;2022-08-01T05:49:17;3.77;;;2.50;;
3559;SDS011;1794;48.804;9.156;2022-08-01T05:51:43;3.50;;;2.20;;
3559;SDS011;1794;48.804;9.156;2022-08-01T05:54:10;2.60;;;2.20;;
3559;SDS011;1794;48.804;9.156;2022-08-01T05:56:38;7.00;;;2.10;;
3559;SDS011;1794;48.804;9.156;2022-08-01T05:59:05;3.10;;;2.30;;
3559;SDS011;1794;48.804;9.156;2022-08-01T06:01:32;5.10;;;2.00;;
3559;SDS011;1794;48.804;9.156;2022-08-01T06:03:59;3.80;;;2.07;;
3559;SDS011;1794;48.804;9.156;2022-08-01T06:06:25;3.40;;;1.97;;
3559;SDS011;1794;48.804;9.156;2022-08-01T06:08:52;2.17;;;1.90;;
3559;SDS011;1794;48.804;9.156;2022-08-01T06:11:19;5.47;;;2.20;;
3559;SDS011;1794;48.804;9.156;2022-08-01T06:13:47;3.10;;;1.90;;
3559;SDS011;1794;48.804;9.156;2022-08-01T06:16:14;2.33;;;1.83;;
3559;SDS011;1794;48.804;9.156;2022-08-01T06:18:41;2.50;;;1.87;;
3559;SDS011;1794;48.804;9.156;2022-08-01T06:21:08;2.93;;;1.90;;
3559;SDS011;1794;48.804;9.156;2022-08-01T06:23:35;2.33;;;2.00;;
3559;SDS011;1794;48.804;9.156;2022-08-01T06:26:02;3.57;;;2.23;;
3559;SDS011;1794;48.804;9.156;2022-08-01T06:28:29;5.13;;;2.30;;
3559;SDS011;1794;48.804;9.156;2022-08-01T06:30:57;2.40;;;1.47;;
3559;SDS011;1794;48.804;9.156;2022-08-01T06:33:24;7.37;;;2.20;;
3559;SDS011;1794;48.804;9.156;2022-08-01T06:35:51;4.60;;;2.50;;
3559;SDS011;1794;48.804;9.156;2022-08-01T06:38:18;3.00;;;2.00;;
3559;SDS011;1794;48.804;9.156;2022-08-01T06:40:44;2.37;;;1.77;;
3559;SDS011;1794;48.804;9.156;2022-08-01T06:43:11;3.03;;;1.50;;
3559;SDS011;1794;48.804;9.156;2022-08-01T06:45:38;3.40;;;1.90;;
3559;SDS011;1794;48.804;9.156;2022-08-01T06:48:07;1.60;;;1.20;;
3559;SDS011;1794;48.804;9.156;2022-08-01T06:50:33;2.20;;;1.57;;
3559;SDS011;1794;48.804;9.156;2022-08-01T06:53:01;2.10;;;1.70;;
3559;SDS011;1794;48.804;9.156;2022-08-01T06:55:28;3.20;;;1.83;;
3559;SDS011;1794;48.804;9.156;2022-08-01T06:57:55;3.83;;;1.73;;
3559;SDS011;1794;48.804;9.156;2022-08-01T07:00:23;2.00;;;1.40;;
3559;SDS011;1794;48.804;9.156;2022-08-01T07:02:51;2.40;;;1.80;;
3559;SDS011;1794;48.804;9.156;2022-08-01T07:05:20;1.77;;;1.50;;
3559;SDS011;1794;48.804;9.156;2022-08-01T07:07:47;2.30;;;1.37;;
3559;SDS011;1794;48.804;9.156;2022-08-01T07:10:15;8.03;;;2.13;;
3559;SDS011;1794;48.804;9.156;2022-08-01T07:12:42;6.67;;;1.90;;
3559;SDS011;1794;48.804;9.156;2022-08-01T07:15:09;1.83;;;1.47;;
3559;SDS011;1794;48.804;9.156;2022-08-01T07:17:37;1.90;;;1.43;;
3559;SDS011;1794;48.804;9.156;2022-08-01T07:20:05;2.70;;;1.87;;
3559;SDS011;1794;48.804;9.156;2022-08-01T07:22:35;2.77;;;2.23;;
3559;SDS011;1794;48.804;9.156;2022-08-01T07:25:03;4.60;;;1.90;;
3559;SDS011;1794;48.804;9.156;2022-08-01T07:27:31;2.87;;;1.50;;
3559;SDS011;1794;48.804;9.156;2022-08-01T07:29:58;2.33;;;2.00;;
3559;SDS011;1794;48.804;9.156;2022-08-01T07:32:25;2.73;;;1.50;;
3559;SDS011;1794;48.804;9.156;2022-08-01T07:34:52;4.53;;;1.73;;
3559;SDS011;1794;48.804;9.156;2022-08-01T07:37:18;2.30;;;1.90;;
3559;SDS011;1794;48.804;9.156;2022-08-01T07:39:46;3.30;;;1.83;;
3559;SDS011;1794;48.804;9.156;2022-08-01T07:42:13;2.10;;;1.57;;
3559;SDS011;1794;48.804;9.156;2022-08-01T07:44:40;5.30;;;1.90;;
3559;SDS011;1794;48.804;9.156;2022-08-01T07:47:06;3.07;;;1.80;;
3559;SDS011;1794;48.804;9.156;2022-08-01T07:49:34;2.33;;;1.70;;
3559;SDS011;1794;48.804;9.156;2022-08-01T07:52:01;2.50;;;1.50;;
3559;SDS011;1794;48.804;9.156;2022-08-01T07:54:28;2.43;;;1.70;;
3559;SDS011;1794;48.804;9.156;2022-08-01T07:56:56;2.57;;;1.93;;
3559;SDS011;1794;48.804;9.156;2022-08-01T07:59:22;2.17;;;1.97;;
3559;SDS011;1794;48.804;9.156;2022-08-01T08:01:49;2.47;;;2.07;;
3559;SDS011;1794;48.804;9.156;2022-08-01T08:04:16;3.17;;;2.03;;
3559;SDS011;1794;48.804;9.156;2022-08-01T08:06:43;3.90;;;2.63;;
3559;SDS011;1794;48.804;9.156;2022-08-01T08:09:12;7.80;;;2.27;;
3559;SDS011;1794;48.804;9.156;2022-08-01T08:11:39;2.60;;;2.20;;
3559;SDS011;1794;48.804;9.156;2022-08-01T08:14:08;3.50;;;2.30;;
3559;SDS011;1794;48.804;9.156;2022-08-01T08:16:35;3.40;;;2.10;;
3559;SDS011;1794;48.804;9.156;2022-08-01T08:19:02;3.20;;;2.10;;
3559;SDS011;1794;48.804;9.156;2022-08-01T08:21:29;2.70;;;1.97;;
3559;SDS011;1794;48.804;9.156;2022-08-01T08:23:55;3.33;;;2.17;;
3559;SDS011;1794;48.804;9.156;2022-08-01T08:26:39;2.00;;;1.80;;
3559;SDS011;1794;48.804;9.156;2022-08-01T08:29:07;5.07;;;2.07;;
3559;SDS011;1794;48.804;9.156;2022-08-01T08:31:35;2.33;;;2.00;;
3559;SDS011;1794;48.804;9.156;2022-08-01T08:34:01;3.60;;;1.97;;
3559;SDS011;1794;48.804;9.156;2022-08-01T08:36:28;5.77;;;2.30;;
3559;SDS011;1794;48.804;9.156;2022-08-01T08:38:55;3.30;;;2.00;;
3559;SDS011;1794;48.804;9.156;2022-08-01T08:41:21;2.30;;;2.10;;
3559;SDS011;1794;48.804;9.156;2022-08-01T08:43:48;2.93;;;2.23;;
3559;SDS011;1794;48.804;9.156;2022-08-01T08:46:16;2.20;;;1.80;;
3559;SDS011;1794;48.804;9.156;2022-08-01T08:48:44;3.50;;;2.83;;
3559;SDS011;1794;48.804;9.156;2022-08-01T08:51:11;3.50;;;2.47;;
3559;SDS011;1794;48.804;9.156;2022-08-01T08:53:39;5.73;;;3.30;;
3559;SDS011;1794;48.804;9.156;2022-08-01T08:56:08;4.37;;;3.97;;
3559;SDS011;1794;48.804;9.156;2022-08-01T08:58:38;5.07;;;4.57;;
3559;SDS011;1794;48.804;9.156;2022-08-01T09:01:06;5.70;;;4.20;;
3559;SDS011;1794;48.804;9.156;2022-08-01T09:03:36;5.67;;;4.63;;
3559;SDS011;1794;48.804;9.156;2022-08-01T09:06:03;7.23;;;5.83;;
3559;SDS011;1794;48.804;9.156;2022-08-01T09:08:30;6.83;;;5.87;;
3559;SDS011;1794;48.804;9.156;2022-08-01T09:10:58;6.93;;;6.23;;
3559;SDS011;1794;48.804;9.156;2022-08-01T09:13:25;6.67;;;5.97;;
3559;SDS011;1794;48.804;9.156;2022-08-01T09:15:52;6.80;;;6.20;;
3559;SDS011;1794;48.804;9.156;2022-08-01T09:18:27;8.57;;;7.70;;
3559;SDS011;1794;48.804;9.156;2022-08-01T09:21:08;9.40;;;8.43;;
3559;SDS011;1794;48.804;9.156;2022-08-01T09:23:41;6.30;;;4.97;;
3559;SDS011;1794;48.804;9.156;2022-08-01T09:26:10;4.47;;;4.07;;
3559;SDS011;1794;48.804;9.156;2022-08-01T09:28:38;4.30;;;3.77;;
3559;SDS011;1794;48.804;9.156;2022-08-01T09:31:06;5.50;;;4.03;;
3559;SDS011;1794;48.804;9.156;2022-08-01T09:33:48;4.57;;;4.10;;
3559;SDS011;1794;48.804;9.156;2022-08-01T09:36:17;5.00;;;3.90;;
3559;SDS011;1794;48.804;9.156;2022-08-01T09:38:44;4.63;;;3.50;;
3559;SDS011;1794;48.804;9.156;2022-08-01T09:41:11;4.27;;;3.40;;
3559;SDS011;1794;48.804;9.156;2022-08-01T09:43:38;5.17;;;3.93;;
3559;SDS011;1794;48.804;9.156;2022-08-01T09:46:05;3.80;;;3.50;;
3559;SDS011;1794;48.804;9.156;2022-08-01T09:48:36;8.27;;;4.13;;
3559;SDS011;1794;48.804;9.156;2022-08-01T09:51:04;4.53;;;4.13;;
3559;SDS011;1794;48.804;9.156;2022-08-01T09:53:43;4.87;;;4.40;;
3559;SDS011;1794;48.804;9.156;2022-08-01T09:56:12;5.53;;;4.77;;
3559;SDS011;1794;48.804;9.156;2022-08-01T09:58:49;4.63;;;4.13;;
3559;SDS011;1794;48.804;9.156;2022-08-01T10:01:17;5.03;;;4.53;;
3559;SDS011;1794;48.804;9.156;2022-08-01T10:03:47;4.93;;;4.33;;
3559;SDS011;1794;48.804;9.156;2022-08-01T10:06:29;5.20;;;4.70;;
3559;SDS011;1794;48.804;9.156;2022-08-01T10:08:57;4.43;;;4.03;;
3559;SDS011;1794;48.804;9.156;2022-08-01T10:11:23;6.27;;;4.20;;
3559;SDS011;1794;48.804;9.156;2022-08-01T10:13:51;4.70;;;4.30;;
3559;SDS011;1794;48.804;9.156;2022-08-01T10:16:18;5.63;;;3.93;;
3559;SDS011;1794;48.804;9.156;2022-08-01T10:18:45;4.20;;;3.80;;
3559;SDS011;1794;48.804;9.156;2022-08-01T10:21:12;4.37;;;3.97;;
3559;SDS011;1794;48.804;9.156;2022-08-01T10:23:39;3.67;;;3.37;;
3559;SDS011;1794;48.804;9.156;2022-08-01T10:26:09;7.13;;;3.57;;
3559;SDS011;1794;48.804;9.156;2022-08-01T10:28:37;3.40;;;3.10;;
3559;SDS011;1794;48.804;9.156;2022-08-01T10:31:05;4.27;;;3.20;;
3559;SDS011;1794;48.804;9.156;2022-08-01T10:33:33;3.40;;;3.10;;
3559;SDS011;1794;48.804;9.156;2022-08-01T10:36:01;3.30;;;2.80;;
3559;SDS011;1794;48.804;9.156;2022-08-01T10:38:28;3.00;;;2.70;;
3559;SDS011;1794;48.804;9.156;2022-08-01T10:40:55;3.30;;;3.00;;
3559;SDS011;1794;48.804;9.156;2022-08-01T10:43:26;4.10;;;3.70;;
3559;SDS011;1794;48.804;9.156;2022-08-01T10:45:53;4.10;;;3.80;;
3559;SDS011;1794;48.804;9.156;2022-08-01T10:48:22;4.83;;;4.40;;
3559;SDS011;1794;48.804;9.156;2022-08-01T10:50:57;4.70;;;4.30;;
3559;SDS011;1794;48.804;9.156;2022-08-01T10:53:26;5.70;;;3.90;;
3559;SDS011;1794;48.804;9.156;2022-08-01T10:55:57;3.93;;;3.53;;
3559;SDS011;1794;48.804;9.156;2022-08-01T10:58:27;3.50;;;3.20;;
3559;SDS011;1794;48.804;9.156;2022-08-01T11:03:58;5.10;;;3.60;;
3559;SDS011;1794;48.804;9.156;2022-08-01T11:06:34;5.73;;;3.93;;
3559;SDS011;1794;48.804;9.156;2022-08-01T11:09:15;3.93;;;3.60;;
3559;SDS011;1794;48.804;9.156;2022-08-01T11:11:59;3.90;;;3.60;;
3559;SDS011;1794;48.804;9.156;2022-08-01T11:14:31;4.40;;;4.00;;
3559;SDS011;1794;48.804;9.156;2022-08-01T11:20:05;3.83;;;3.50;;
3559;SDS011;1794;48.804;9.156;2022-08-01T11:28:34;3.97;;;2.67;;
3559;SDS011;1794;48.804;9.156;2022-08-01T11:33:54;3.20;;;2.80;;
3559;SDS011;1794;48.804;9.156;2022-08-01T11:36:21;5.30;;;2.70;;
3559;SDS011;1794;48.804;9.156;2022-08-01T11:38:50;3.65;;;3.35;;
3559;SDS011;1794;48.804;9.156;2022-08-01T11:41:42;3.27;;;3.03;;
3559;SDS011;1794;48.804;9.156;2022-08-01T11:44:10;2.83;;;2.60;;
3559;SDS011;1794;48.804;9.156;2022-08-01T11:46:56;3.50;;;3.20;;
3559;SDS011;1794;48.804;9.156;2022-08-01T11:49:45;3.40;;;3.10;;
3559;SDS011;1794;48.804;9.156;2022-08-01T11:52:16;3.53;;;3.23;;
3559;SDS011;1794;48.804;9.156;2022-08-01T11:54:45;3.08;;;2.88;;
3559;SDS011;1794;48.804;9.156;2022-08-01T11:57:13;2.60;;;2.40;;
3559;SDS011;1794;48.804;9.156;2022-08-01T11:59:44;2.90;;;2.70;;
3559;SDS011;1794;48.804;9.156;2022-08-01T12:02:19;3.33;;;3.03;;
3559;SDS011;1794;48.804;9.156;2022-08-01T12:04:48;3.97;;;3.40;;
3559;SDS011;1794;48.804;9.156;2022-08-01T12:07:16;3.38;;;3.08;;
3559;SDS011;1794;48.804;9.156;2022-08-01T12:09:44;3.15;;;2.85;;
3559;SDS011;1794;48.804;9.156;2022-08-01T12:12:14;5.10;;;3.00;;
3559;SDS011;1794;48.804;9.156;2022-08-01T12:14:43;3.60;;;2.70;;
3559;SDS011;1794;48.804;9.156;2022-08-01T12:17:11;3.90;;;3.60;;
3559;SDS011;1794;48.804;9.156;2022-08-01T12:19:40;3.93;;;3.53;;
3559;SDS011;1794;48.804;9.156;2022-08-01T12:22:10;5.10;;;3.83;;
3559;SDS011;1794;48.804;9.156;2022-08-01T12:24:39;5.30;;;3.40;;
3559;SDS011;1794;48.804;9.156;2022-08-01T12:27:07;4.40;;;3.70;;
3559;SDS011;1794;48.804;9.156;2022-08-01T12:29:35;3.57;;;3.27;;
3559;SDS011;1794;48.804;9.156;2022-08-01T12:32:03;3.60;;;3.30;;
3559;SDS011;1794;48.804;9.156;2022-08-01T12:34:47;9.17;;;4.37;;
3559;SDS011;1794;48.804;9.156;2022-08-01T12:37:14;3.87;;;3.10;;
3559;SDS011;1794;48.804;9.156;2022-08-01T12:39:42;3.60;;;3.30;;
3559;SDS011;1794;48.804;9.156;2022-08-01T12:42:09;3.77;;;3.47;;
3559;SDS011;1794;48.804;9.156;2022-08-01T12:44:36;3.53;;;3.23;;
3559;SDS011;1794;48.804;9.156;2022-08-01T12:47:04;3.90;;;3.10;;
3559;SDS011;1794;48.804;9.156;2022-08-01T12:49:32;4.43;;;3.00;;
3559;SDS011;1794;48.804;9.156;2022-08-01T12:52:02;3.30;;;3.00;;
3559;SDS011;1794;48.804;9.156;2022-08-01T12:54:29;5.93;;;2.97;;
3559;SDS011;1794;48.804;9.156;2022-08-01T12:56:56;4.10;;;2.83;;
3559;SDS011;1794;48.804;9.156;2022-08-01T12:59:23;3.10;;;2.50;;
3559;SDS011;1794;48.804;9.156;2022-08-01T13:01:51;2.90;;;2.70;;
3559;SDS011;1794;48.804;9.156;2022-08-01T13:04:18;3.30;;;3.00;;
3559;SDS011;1794;48.804;9.156;2022-08-01T13:06:45;3.10;;;2.80;;
3559;SDS011;1794;48.804;9.156;2022-08-01T13:09:14;3.40;;;3.10;;
3559;SDS011;1794;48.804;9.156;2022-08-01T13:11:41;4.80;;;3.30;;
3559;SDS011;1794;48.804;9.156;2022-08-01T13:14:08;3.40;;;2.70;;
3559;SDS011;1794;48.804;9.156;2022-08-01T13:16:45;6.60;;;2.80;;
3559;SDS011;1794;48.804;9.156;2022-08-01T13:19:12;3.70;;;3.20;;
3559;SDS011;1794;48.804;9.156;2022-08-01T13:21:39;3.30;;;2.70;;
3559;SDS011;1794;48.804;9.156;2022-08-01T13:24:24;4.83;;;2.67;;
3559;SDS011;1794;48.804;9.156;2022-08-01T13:26:52;3.20;;;2.90;;
3559;SDS011;1794;48.804;9.156;2022-08-01T13:29:29;2.80;;;2.43;;
3559;SDS011;1794;48.804;9.156;2022-08-01T13:31:57;8.43;;;3.20;;
3559;SDS011;1794;48.804;9.156;2022-08-01T13:34:30;3.43;;;3.13;;
3559;SDS011;1794;48.804;9.156;2022-08-01T13:36:58;6.07;;;2.60;;
3559;SDS011;1794;48.804;9.156;2022-08-01T13:39:27;4.40;;;2.60;;
3559;SDS011;1794;48.804;9.156;2022-08-01T13:42:07;2.77;;;1.97;;
3559;SDS011;1794;48.804;9.156;2022-08-01T13:44:34;3.10;;;2.80;;
3559;SDS011;1794;48.804;9.156;2022-08-01T13:47:01;3.40;;;2.50;;
3559;SDS011;1794;48.804;9.156;2022-08-01T13:49:29;3.60;;;2.87;;
3559;SDS011;1794;48.804;9.156;2022-08-01T13:51:55;2.90;;;2.50;;
3559;SDS011;1794;48.804;9.156;2022-08-01T13:54:22;3.30;;;2.50;;
3559;SDS011;1794;48.804;9.156;2022-08-01T13:56:51;2.57;;;2.37;;
3559;SDS011;1794;48.804;9.156;2022-08-01T13:59:18;3.90;;;2.30;;
3559;SDS011;1794;48.804;9.156;2022-08-01T14:01:45;2.90;;;2.20;;
3559;SDS011;1794;48.804;9.156;2022-08-01T14:04:12;3.00;;;2.50;;
3559;SDS011;1794;48.804;9.156;2022-08-01T14:06:39;3.60;;;2.50;;
3559;SDS011;1794;48.804;9.156;2022-08-01T14:09:06;7.60;;;2.50;;
3559;SDS011;1794;48.804;9.156;2022-08-01T14:11:33;3.07;;;2.73;;
3559;SDS011;1794;48.804;9.156;2022-08-01T14:14:02;4.60;;;2.40;;
3559;SDS011;1794;48.804;9.156;2022-08-01T14:16:28;4.47;;;2.93;;
3559;SDS011;1794;48.804;9.156;2022-08-01T14:18:55;3.00;;;2.27;;
3559;SDS011;1794;48.804;9.156;2022-08-01T14:21:22;4.23;;;2.23;;
3559;SDS011;1794;48.804;9.156;2022-08-01T14:23:48;3.00;;;2.70;;
3559;SDS011;1794;48.804;9.156;2022-08-01T14:26:15;2.60;;;2.27;;
3559;SDS011;1794;48.804;9.156;2022-08-01T14:28:42;2.87;;;2.47;;
3559;SDS011;1794;48.804;9.156;2022-08-01T14:31:10;4.23;;;2.57;;
3559;SDS011;1794;48.804;9.156;2022-08-01T14:33:37;3.63;;;2.80;;
3559;SDS011;1794;48.804;9.156;2022-08-01T14:36:03;4.00;;;2.43;;
3559;SDS011;1794;48.804;9.156;2022-08-01T14:38:30;5.03;;;2.90;;
3559;SDS011;1794;48.804;9.156;2022-08-01T14:40:57;2.50;;;2.20;;
3559;SDS011;1794;48.804;9.156;2022-08-01T14:43:24;6.47;;;2.63;;
3559;SDS011;1794;48.804;9.156;2022-08-01T14:45:51;3.33;;;2.80;;
3559;SDS011;1794;48.804;9.156;2022-08-01T14:48:20;4.90;;;2.47;;
3559;SDS011;1794;48.804;9.156;2022-08-01T14:50:47;4.63;;;2.40;;
3559;SDS011;1794;48.804;9.156;2022-08-01T14:53:15;3.60;;;2.27;;
3559;SDS011;1794;48.804;9.156;2022-08-01T14:55:42;2.63;;;2.10;;
3559;SDS011;1794;48.804;9.156;2022-08-01T14:58:09;4.00;;;3.53;;
3559;SDS011;1794;48.804;9.156;2022-08-01T15:00:36;2.30;;;1.97;;
3559;SDS011;1794;48.804;9.156;2022-08-01T15:03:03;2.87;;;2.57;;
3559;SDS011;1794;48.804;9.156;2022-08-01T15:05:31;3.10;;;2.33;;
3559;SDS011;1794;48.804;9.156;2022-08-01T15:07:57;2.83;;;2.30;;
3559;SDS011;1794;48.804;9.156;2022-08-01T15:10:24;2.90;;;1.97;;
3559;SDS011;1794;48.804;9.156;2022-08-01T15:12:51;4.63;;;2.27;;
3559;SDS011;1794;48.804;9.156;2022-08-01T15:15:18;3.33;;;2.47;;
3559;SDS011;1794;48.804;9.156;2022-08-01T15:17:46;3.27;;;2.77;;
3559;SDS011;1794;48.804;9.156;2022-08-01T15:20:12;4.10;;;2.00;;
3559;SDS011;1794;48.804;9.156;2022-08-01T15:22:41;2.40;;;2.20;;
3559;SDS011;1794;48.804;9.156;2022-08-01T15:25:08;2.23;;;1.83;;
3559;SDS011;1794;48.804;9.156;2022-08-01T15:27:35;3.30;;;2.27;;
3559;SDS011;1794;48.804;9.156;2022-08-01T15:30:02;2.50;;;1.83;;
3559;SDS011;1794;48.804;9.156;2022-08-01T15:32:42;3.00;;;2.17;;
3559;SDS011;1794;48.804;9.156;2022-08-01T15:35:10;2.90;;;2.20;;
3559;SDS011;1794;48.804;9.156;2022-08-01T15:37:37;2.60;;;2.10;;
3559;SDS011;1794;48.804;9.156;2022-08-01T15:40:04;6.07;;;2.10;;